createdAt,value
2022-09-23T00:02:00.799Z,0.65
2022-09-23T00:04:31.421Z,0.43
2022-09-23T00:07:02.309Z,0.45
2022-09-23T00:09:32.781Z,0.50
2022-09-23T00:12:08.189Z,0.55
2022-09-23T00:14:40.486Z,0.70
2022-09-23T00:17:11.038Z,0.32
2022-09-23T00:22:12.297Z,0.60
2022-09-23T00:24:42.667Z,0.70
2022-09-23T00:27:13.066Z,0.30
2022-09-23T00:29:43.558Z,0.20
2022-09-23T00:32:13.726Z,0.50
2022-09-23T00:34:46.165Z,0.20
2022-09-23T00:37:18.035Z,0.30
2022-09-23T00:39:48.872Z,0.38
2022-09-23T00:42:22.412Z,0.50
2022-09-23T00:45:01.343Z,0.30
2022-09-23T00:47:34.347Z,0.55
2022-09-23T00:50:07.774Z,0.50
2022-09-23T00:52:39.354Z,0.57
2022-09-23T00:55:14.917Z,0.25
2022-09-23T00:57:47.475Z,0.20
2022-09-23T01:00:17.941Z,0.60
2022-09-23T01:02:48.670Z,0.43
2022-09-23T01:05:20.740Z,0.50
2022-09-23T01:07:52.553Z,0.55
2022-09-23T01:10:24.568Z,1.20
2022-09-23T01:13:19.275Z,0.50
2022-09-23T01:16:06.839Z,0.50
2022-09-23T01:18:57.414Z,0.63
2022-09-23T01:21:51.676Z,0.47
2022-09-23T01:24:46.410Z,0.43
2022-09-23T01:27:34.536Z,0.20
2022-09-23T01:30:05.152Z,0.35
2022-09-23T01:36:04.820Z,0.20
2022-09-23T01:39:00.391Z,0.00
2022-09-23T01:42:04.354Z,0.28
2022-09-23T01:45:10.297Z,0.40
2022-09-23T01:47:46.596Z,0.40
2022-09-23T01:50:39.526Z,0.28
2022-09-23T01:53:37.105Z,0.17
2022-09-23T01:56:34.769Z,0.20
2022-09-23T01:59:18.667Z,0.20
2022-09-23T02:01:49.745Z,0.10
2022-09-23T02:04:32.473Z,0.30
2022-09-23T02:07:16.448Z,0.13
2022-09-23T02:09:52.343Z,0.20
2022-09-23T02:12:25.788Z,0.08
2022-09-23T02:15:03.163Z,0.50
2022-09-23T02:17:56.183Z,0.50
2022-09-23T02:20:32.813Z,0.35
2022-09-23T02:23:15.162Z,0.30
2022-09-23T02:26:05.617Z,0.40
2022-09-23T02:28:54.181Z,0.70
2022-09-23T02:31:32.347Z,0.43
2022-09-23T02:34:16.988Z,0.95
2022-09-23T02:37:01.681Z,0.50
2022-09-23T02:39:41.547Z,0.38
2022-09-23T02:42:17.220Z,0.40
2022-09-23T02:44:47.694Z,0.50
2022-09-23T02:47:25.558Z,0.47
2022-09-23T02:49:57.593Z,0.70
2022-09-23T02:52:29.148Z,0.25
2022-09-23T02:55:02.091Z,0.10
2022-09-23T02:57:32.655Z,0.60
2022-09-23T03:00:03.755Z,0.30
2022-09-23T03:02:34.469Z,0.35
2022-09-23T03:08:06.445Z,0.20
2022-09-23T03:10:39.808Z,0.30
2022-09-23T03:13:28.629Z,0.20
2022-09-23T03:16:08.848Z,0.32
2022-09-23T03:19:06.749Z,0.40
2022-09-23T03:21:40.701Z,0.40
2022-09-23T03:24:15.630Z,0.28
2022-09-23T03:26:49.039Z,0.20
2022-09-23T03:29:22.172Z,0.30
2022-09-23T03:31:53.279Z,0.00
2022-09-23T03:34:28.819Z,0.13
2022-09-23T03:37:08.762Z,0.40
2022-09-23T03:39:44.432Z,0.20
2022-09-23T03:42:23.982Z,0.15
2022-09-23T03:44:58.520Z,0.60
2022-09-23T03:47:30.417Z,0.30
2022-09-23T03:50:00.965Z,0.20
2022-09-23T03:52:31.475Z,0.40
2022-09-23T03:55:02.741Z,0.30
2022-09-23T03:57:33.287Z,0.65
2022-09-23T04:00:04.048Z,0.40
2022-09-23T04:02:41.532Z,0.45
2022-09-23T04:05:13.467Z,0.45
2022-09-23T04:07:43.944Z,0.28
2022-09-23T04:10:14.573Z,0.28
2022-09-23T04:12:45.076Z,0.30
2022-09-23T04:15:16.073Z,0.38
2022-09-23T04:17:46.547Z,0.10
2022-09-23T04:20:18.100Z,0.30
2022-09-23T04:22:48.525Z,0.25
2022-09-23T04:25:19.001Z,0.40
2022-09-23T04:27:49.502Z,0.30
2022-09-23T04:30:20.006Z,0.20
2022-09-23T04:32:50.395Z,0.30
2022-09-23T04:35:21.206Z,0.52
2022-09-23T04:37:51.627Z,0.60
2022-09-23T04:40:22.088Z,0.28
2022-09-23T04:42:52.553Z,0.20
2022-09-23T04:45:22.993Z,0.10
2022-09-23T04:47:53.334Z,0.38
2022-09-23T04:50:23.673Z,0.30
2022-09-23T04:52:55.309Z,0.00
2022-09-23T04:55:25.758Z,0.20
2022-09-23T04:57:56.050Z,0.40
2022-09-23T05:00:28.506Z,0.15
2022-09-23T05:02:58.930Z,0.25
2022-09-23T05:05:31.022Z,0.10
2022-09-23T05:08:01.391Z,0.28
2022-09-23T05:10:32.511Z,0.32
2022-09-23T05:13:02.987Z,0.20
2022-09-23T05:15:33.867Z,0.43
2022-09-23T05:18:04.330Z,0.50
2022-09-23T05:20:34.792Z,0.50
2022-09-23T05:23:05.225Z,0.30
2022-09-23T05:25:38.377Z,0.30
2022-09-23T05:28:08.967Z,0.25
2022-09-23T05:30:39.386Z,0.30
2022-09-23T05:33:09.882Z,0.40
2022-09-23T05:35:40.403Z,0.40
2022-09-23T05:38:10.898Z,0.13
2022-09-23T05:40:41.496Z,0.32
2022-09-23T05:45:42.180Z,0.13
2022-09-23T05:48:12.539Z,0.22
2022-09-23T05:50:50.735Z,0.38
2022-09-23T05:53:21.475Z,0.20
2022-09-23T05:55:52.744Z,0.55
2022-09-23T05:58:24.813Z,0.30
2022-09-23T06:00:58.102Z,0.20
2022-09-23T06:03:28.553Z,0.50
2022-09-23T06:05:59.081Z,0.20
2022-09-23T06:08:29.594Z,0.35
2022-09-23T06:11:00.133Z,0.10
2022-09-23T06:13:30.587Z,0.20
2022-09-23T06:16:01.355Z,0.20
2022-09-23T06:18:32.266Z,0.40
2022-09-23T06:21:04.589Z,0.20
2022-09-23T06:23:38.068Z,0.20
2022-09-23T06:26:12.116Z,0.20
2022-09-23T06:28:44.249Z,0.40
2022-09-23T06:31:17.345Z,0.30
2022-09-23T06:33:48.448Z,0.32
2022-09-23T06:36:36.325Z,0.10
2022-09-23T06:39:09.692Z,0.43
2022-09-23T06:41:40.570Z,0.10
2022-09-23T06:44:18.039Z,0.20
2022-09-23T06:46:48.789Z,0.55
2022-09-23T06:49:20.434Z,0.30
2022-09-23T06:51:51.169Z,0.20
2022-09-23T06:54:21.655Z,0.10
2022-09-23T06:56:52.169Z,0.10
2022-09-23T06:59:22.574Z,0.30
2022-09-23T07:01:53.153Z,0.40
2022-09-23T07:06:59.609Z,0.20
2022-09-23T07:09:30.394Z,0.70
2022-09-23T07:12:00.906Z,0.40
2022-09-23T07:14:31.347Z,0.20
2022-09-23T07:17:02.183Z,0.57
2022-09-23T07:19:32.757Z,0.38
2022-09-23T07:22:03.352Z,0.20
2022-09-23T07:24:35.603Z,0.20
2022-09-23T07:27:06.801Z,0.30
2022-09-23T07:29:47.084Z,0.30
2022-09-23T07:32:19.355Z,0.30
2022-09-23T07:34:50.736Z,0.68
2022-09-23T07:37:21.348Z,0.10
2022-09-23T07:39:52.511Z,0.30
2022-09-23T07:42:22.997Z,0.20
2022-09-23T07:44:53.720Z,0.50
2022-09-23T07:49:55.440Z,0.10
2022-09-23T07:52:26.395Z,0.40
2022-09-23T07:54:56.843Z,0.30
2022-09-23T07:57:27.262Z,0.30
2022-09-23T07:59:57.798Z,0.25
2022-09-23T08:02:28.522Z,0.30
2022-09-23T08:07:28.848Z,0.20
2022-09-23T08:09:59.577Z,0.45
2022-09-23T08:12:33.674Z,0.60
2022-09-23T08:15:04.476Z,0.20
2022-09-23T08:17:35.484Z,0.28
2022-09-23T08:20:06.175Z,0.20
2022-09-23T08:25:09.341Z,0.10
2022-09-23T08:27:41.532Z,0.43
2022-09-23T08:30:12.580Z,0.20
2022-09-23T08:32:43.004Z,0.20
2022-09-23T08:35:13.522Z,0.20
2022-09-23T08:37:43.934Z,0.50
2022-09-23T08:40:14.726Z,0.30
2022-09-23T08:42:47.105Z,0.20
2022-09-23T08:45:28.904Z,0.60
2022-09-23T08:47:59.633Z,0.38
2022-09-23T08:50:42.492Z,0.25
2022-09-23T08:53:36.930Z,0.25
2022-09-23T08:56:35.482Z,0.60
2022-09-23T08:59:14.690Z,0.30
2022-09-23T09:02:13.049Z,0.40
2022-09-23T09:04:50.825Z,0.10
2022-09-23T09:07:41.196Z,0.20
2022-09-23T09:10:49.974Z,0.20
2022-09-23T09:13:53.228Z,0.50
2022-09-23T09:16:59.089Z,0.10
2022-09-23T09:19:54.228Z,0.22
2022-09-23T09:22:59.427Z,0.20
2022-09-23T09:25:58.741Z,0.20
2022-09-23T09:28:48.868Z,0.20
2022-09-23T09:31:44.333Z,0.43
2022-09-23T09:34:33.287Z,0.40
2022-09-23T09:37:17.320Z,0.40
2022-09-23T09:39:47.885Z,1.05
2022-09-23T09:42:37.536Z,0.70
2022-09-23T09:45:33.595Z,0.38
2022-09-23T09:48:12.271Z,0.30
2022-09-23T09:50:57.377Z,0.35
2022-09-23T09:53:31.735Z,0.25
2022-09-23T09:56:06.911Z,0.32
2022-09-23T09:58:45.097Z,0.30
2022-09-23T10:01:24.827Z,0.70
2022-09-23T10:04:00.729Z,0.30
2022-09-23T10:06:34.225Z,0.13
2022-09-23T10:09:10.049Z,0.30
2022-09-23T10:11:41.680Z,0.30
2022-09-23T10:14:20.217Z,0.43
2022-09-23T10:17:07.571Z,0.40
2022-09-23T10:19:40.134Z,0.20
2022-09-23T10:22:21.959Z,0.30
2022-09-23T10:24:56.246Z,0.55
2022-09-23T10:27:36.376Z,0.40
2022-09-23T10:30:26.093Z,0.75
2022-09-23T10:32:58.390Z,0.40
2022-09-23T10:35:29.536Z,0.25
2022-09-23T10:38:02.079Z,0.10
2022-09-23T10:40:52.537Z,0.20
2022-09-23T10:44:13.128Z,0.13
2022-09-23T10:49:42.776Z,0.30
2022-09-23T10:52:37.464Z,0.20
2022-09-23T10:55:42.426Z,0.10
2022-09-23T10:58:18.907Z,0.60
2022-09-23T11:01:07.444Z,0.38
2022-09-23T11:04:05.390Z,0.88
2022-09-23T11:07:04.027Z,0.70
2022-09-23T11:09:41.769Z,0.20
2022-09-23T11:12:50.408Z,0.30
2022-09-23T11:15:40.300Z,0.73
2022-09-23T11:18:23.944Z,0.20
2022-09-23T11:21:09.300Z,0.57
2022-09-23T11:23:58.271Z,0.30
2022-09-23T11:26:43.693Z,0.40
2022-09-23T11:29:32.766Z,0.20
2022-09-23T11:32:05.842Z,0.47
2022-09-23T11:34:39.099Z,0.22
2022-09-23T11:37:24.267Z,0.30
2022-09-23T11:40:16.838Z,0.10
2022-09-23T11:43:08.794Z,0.20
2022-09-23T11:45:46.742Z,0.40
2022-09-23T11:48:21.761Z,0.50
2022-09-23T11:51:04.639Z,0.40
2022-09-23T11:53:53.638Z,0.17
2022-09-23T11:56:42.205Z,0.30
2022-09-23T11:59:37.090Z,0.22
2022-09-23T12:02:30.892Z,0.22
2022-09-23T12:05:11.159Z,0.20
2022-09-23T12:07:58.086Z,0.20
2022-09-23T12:10:43.093Z,0.35
2022-09-23T12:13:22.401Z,0.52
2022-09-23T12:16:17.099Z,0.40
2022-09-23T12:19:04.040Z,0.45
2022-09-23T12:21:52.071Z,0.30
2022-09-23T12:24:29.680Z,0.60
2022-09-23T12:27:06.858Z,0.45
2022-09-23T12:29:40.416Z,0.30
2022-09-23T12:32:20.180Z,0.20
2022-09-23T12:34:53.419Z,0.35
2022-09-23T12:37:50.309Z,0.30
2022-09-23T12:40:36.573Z,0.22
2022-09-23T12:43:07.114Z,0.20
2022-09-23T12:45:40.975Z,0.22
2022-09-23T12:48:20.647Z,0.30
2022-09-23T12:51:00.278Z,0.50
2022-09-23T12:53:36.573Z,0.10
2022-09-23T12:56:20.653Z,0.30
2022-09-23T12:58:51.240Z,0.30
2022-09-23T13:04:13.771Z,0.82
2022-09-23T13:06:52.192Z,0.40
2022-09-23T13:09:27.465Z,0.30
2022-09-23T13:12:07.335Z,0.40
2022-09-23T13:14:39.134Z,0.30
2022-09-23T13:17:23.565Z,0.30
2022-09-23T13:20:04.664Z,0.35
2022-09-23T13:23:05.270Z,0.30
2022-09-23T13:25:44.278Z,0.10
2022-09-23T13:28:43.399Z,0.10
2022-09-23T13:31:17.805Z,0.20
2022-09-23T13:34:02.795Z,0.45
2022-09-23T13:36:48.221Z,0.32
2022-09-23T13:39:25.923Z,0.52
2022-09-23T13:42:02.420Z,0.25
2022-09-23T13:44:33.027Z,0.43
2022-09-23T13:47:04.631Z,0.32
2022-09-23T13:49:38.118Z,0.30
2022-09-23T13:52:29.475Z,0.35
2022-09-23T13:55:00.065Z,0.45
2022-09-23T13:57:31.657Z,0.20
2022-09-23T14:00:04.368Z,0.50
2022-09-23T14:02:34.805Z,0.10
2022-09-23T14:07:42.503Z,0.22
2022-09-23T14:12:52.123Z,0.30
2022-09-23T14:15:23.287Z,0.30
2022-09-23T14:17:59.230Z,0.28
2022-09-23T14:20:29.935Z,0.60
2022-09-23T14:23:14.110Z,0.32
2022-09-23T14:25:48.527Z,0.40
2022-09-23T14:28:22.143Z,0.22
2022-09-23T14:30:59.121Z,0.10
2022-09-23T14:33:40.881Z,0.10
2022-09-23T14:36:35.221Z,0.15
2022-09-23T14:39:09.975Z,0.40
2022-09-23T14:41:43.847Z,0.30
2022-09-23T14:44:23.853Z,0.32
2022-09-23T14:46:59.958Z,0.40
2022-09-23T14:49:30.463Z,0.20
2022-09-23T14:52:08.624Z,0.70
2022-09-23T14:54:42.182Z,0.55
2022-09-23T14:57:33.950Z,0.43
2022-09-23T15:00:24.412Z,0.30
2022-09-23T15:03:04.234Z,0.20
2022-09-23T15:05:44.060Z,0.40
2022-09-23T15:08:24.381Z,0.43
2022-09-23T15:10:55.983Z,0.55
2022-09-23T15:13:31.556Z,0.15
2022-09-23T15:16:03.231Z,0.10
2022-09-23T15:18:37.709Z,0.20
2022-09-23T15:21:22.628Z,0.20
2022-09-23T15:23:58.797Z,0.40
2022-09-23T15:26:48.524Z,0.50
2022-09-23T15:29:20.538Z,0.50
2022-09-23T15:31:51.903Z,0.20
2022-09-23T15:34:23.173Z,0.17
2022-09-23T15:36:53.789Z,0.20
2022-09-23T15:39:35.511Z,0.30
2022-09-23T15:42:08.559Z,0.32
2022-09-23T15:44:39.543Z,0.30
2022-09-23T15:47:20.259Z,0.45
2022-09-23T15:49:51.009Z,0.40
2022-09-23T15:52:24.031Z,0.28
2022-09-23T15:54:54.880Z,0.28
2022-09-23T15:57:27.345Z,0.60
2022-09-23T15:59:59.890Z,0.20
2022-09-23T16:02:31.932Z,0.20
2022-09-23T16:05:07.106Z,0.20
2022-09-23T16:07:37.698Z,0.22
2022-09-23T16:10:08.693Z,0.22
2022-09-23T16:12:39.287Z,0.20
2022-09-23T16:15:16.764Z,0.20
2022-09-23T16:17:47.346Z,0.43
2022-09-23T16:20:19.158Z,0.38
2022-09-23T16:22:52.688Z,0.40
2022-09-23T16:25:26.997Z,0.82
2022-09-23T16:27:58.419Z,0.20
2022-09-23T16:30:31.076Z,0.47
2022-09-23T16:33:03.154Z,0.32
2022-09-23T16:35:35.524Z,0.20
2022-09-23T16:38:07.261Z,0.20
2022-09-23T16:40:39.719Z,0.20
2022-09-23T16:43:11.845Z,0.20
2022-09-23T16:45:42.441Z,0.20
2022-09-23T16:48:13.434Z,0.30
2022-09-23T16:50:45.471Z,0.20
2022-09-23T16:53:18.710Z,0.25
2022-09-23T16:55:49.198Z,0.20
2022-09-23T16:58:19.531Z,0.30
2022-09-23T17:01:08.408Z,0.20
2022-09-23T17:03:42.207Z,0.25
2022-09-23T17:06:17.369Z,0.30
2022-09-23T17:08:52.483Z,0.40
2022-09-23T17:11:23.880Z,0.30
2022-09-23T17:13:54.810Z,0.20
2022-09-23T17:16:32.944Z,0.22
2022-09-23T17:19:12.329Z,0.30
2022-09-23T17:21:43.952Z,0.30
2022-09-23T17:24:14.573Z,0.10
2022-09-23T17:26:52.142Z,0.30
2022-09-23T17:29:23.622Z,0.32
2022-09-23T17:31:54.375Z,0.40
2022-09-23T17:34:25.446Z,0.52
2022-09-23T17:36:56.823Z,0.30
2022-09-23T17:39:27.188Z,0.47
2022-09-23T17:42:00.090Z,0.20
2022-09-23T17:44:30.666Z,0.30
2022-09-23T17:47:02.256Z,0.20
2022-09-23T17:49:36.680Z,0.30
2022-09-23T17:52:07.630Z,0.17
2022-09-23T17:54:38.071Z,0.40
2022-09-23T17:57:08.890Z,0.17
2022-09-23T17:59:39.299Z,0.25
2022-09-23T18:02:13.715Z,0.20
2022-09-23T18:04:45.840Z,0.30
2022-09-23T18:07:16.489Z,0.40
2022-09-23T18:09:46.990Z,0.50
2022-09-23T18:12:18.252Z,0.20
2022-09-23T18:14:49.766Z,0.20
2022-09-23T18:17:20.349Z,0.38
2022-09-23T18:19:50.905Z,0.30
2022-09-23T18:22:21.287Z,0.32
2022-09-23T18:24:51.656Z,0.20
2022-09-23T18:27:22.027Z,0.40
2022-09-23T18:29:52.349Z,0.50
2022-09-23T18:32:22.587Z,0.22
2022-09-23T18:34:52.900Z,0.25
2022-09-23T18:37:23.632Z,0.52
2022-09-23T18:39:54.069Z,0.20
2022-09-23T18:42:25.438Z,0.13
2022-09-23T18:44:57.697Z,0.20
2022-09-23T18:47:47.477Z,0.30
2022-09-23T18:50:35.801Z,0.38
2022-09-23T18:53:06.319Z,0.35
2022-09-23T18:55:37.801Z,0.30
2022-09-23T18:58:08.929Z,0.10
2022-09-23T19:00:39.351Z,0.20
2022-09-23T19:03:09.771Z,0.20
2022-09-23T19:05:40.092Z,0.30
2022-09-23T19:08:10.691Z,0.38
2022-09-23T19:10:40.883Z,0.30
2022-09-23T19:13:11.503Z,0.45
2022-09-23T19:15:43.088Z,0.30
2022-09-23T19:18:13.957Z,0.20
2022-09-23T19:20:54.324Z,0.40
2022-09-23T19:23:25.177Z,0.50
2022-09-23T19:25:56.550Z,0.25
2022-09-23T19:28:26.856Z,0.20
2022-09-23T19:33:27.384Z,0.22
2022-09-23T19:35:59.738Z,0.20
2022-09-23T19:38:30.204Z,0.20
2022-09-23T19:43:35.136Z,0.30
2022-09-23T19:46:08.402Z,0.35
2022-09-23T19:48:38.905Z,0.45
2022-09-23T19:51:09.292Z,0.25
2022-09-23T19:56:09.918Z,0.10
2022-09-23T19:58:40.342Z,0.45
2022-09-23T20:03:40.676Z,0.50
2022-09-23T20:06:11.155Z,0.38
2022-09-23T20:08:41.485Z,0.30
2022-09-23T20:11:21.792Z,0.25
2022-09-23T20:14:03.213Z,0.40
2022-09-23T20:16:36.522Z,0.40
2022-09-23T20:19:07.304Z,0.20
2022-09-23T20:21:37.756Z,0.38
2022-09-23T20:24:10.724Z,0.30
2022-09-23T20:27:01.450Z,0.30
2022-09-23T20:29:34.860Z,0.25
2022-09-23T20:32:12.558Z,0.30
2022-09-23T20:34:48.018Z,0.43
2022-09-23T20:37:19.434Z,0.35
2022-09-23T20:39:50.594Z,0.55
2022-09-23T20:42:23.264Z,0.65
2022-09-23T20:44:54.203Z,0.20
2022-09-23T20:47:26.288Z,0.30
2022-09-23T20:49:56.979Z,0.60
2022-09-23T20:52:27.509Z,0.30
2022-09-23T20:54:58.261Z,0.60
2022-09-23T20:57:31.061Z,0.43
2022-09-23T21:00:01.669Z,0.40
2022-09-23T21:02:32.250Z,0.70
2022-09-23T21:05:03.136Z,0.40
2022-09-23T21:07:33.662Z,0.70
2022-09-23T21:10:06.706Z,0.75
2022-09-23T21:12:37.189Z,0.57
2022-09-23T21:15:08.397Z,1.05
2022-09-23T21:17:38.906Z,1.20
2022-09-23T21:20:10.414Z,1.00
2022-09-23T21:22:40.893Z,1.02
2022-09-23T21:25:28.531Z,1.42
2022-09-23T21:28:03.130Z,1.38
2022-09-23T21:30:33.701Z,1.20
2022-09-23T21:33:04.383Z,0.90
2022-09-23T21:35:34.829Z,0.80
2022-09-23T21:38:05.309Z,0.85
2022-09-23T21:40:54.164Z,0.88
2022-09-23T21:43:28.943Z,0.70
2022-09-23T21:46:02.104Z,0.63
2022-09-23T21:48:42.332Z,0.80
2022-09-23T21:51:16.348Z,0.55
2022-09-23T21:53:47.308Z,0.60
2022-09-23T21:56:21.240Z,0.77
2022-09-23T21:58:53.506Z,0.95
2022-09-23T22:01:26.340Z,0.73
2022-09-23T22:04:06.298Z,1.10
2022-09-23T22:06:39.552Z,1.30
2022-09-23T22:09:14.480Z,1.25
2022-09-23T22:12:03.783Z,1.40
2022-09-23T22:14:34.315Z,0.90
2022-09-23T22:17:06.889Z,0.82
2022-09-23T22:19:45.925Z,1.08
2022-09-23T22:22:19.534Z,1.42
2022-09-23T22:24:50.355Z,0.93
2022-09-23T22:27:21.873Z,0.88
2022-09-23T22:30:24.450Z,1.30
2022-09-23T22:32:55.389Z,0.88
2022-09-23T22:35:25.922Z,1.45
2022-09-23T22:37:57.238Z,0.88
2022-09-23T22:40:27.758Z,1.33
2022-09-23T22:42:58.935Z,1.63
2022-09-23T22:45:29.398Z,1.35
2022-09-23T22:48:00.381Z,1.48
2022-09-23T22:50:30.899Z,1.33
2022-09-23T22:53:03.310Z,1.40
2022-09-23T22:55:33.817Z,1.27
2022-09-23T22:58:21.552Z,2.03
2022-09-23T23:00:58.532Z,1.75
2022-09-23T23:03:33.468Z,1.08
2022-09-23T23:06:09.808Z,1.80
2022-09-23T23:08:46.253Z,1.63
2022-09-23T23:11:23.005Z,2.45
2022-09-23T23:13:53.874Z,1.95
2022-09-23T23:16:26.679Z,2.88
2022-09-23T23:18:57.665Z,2.50
2022-09-23T23:21:28.607Z,2.08
2022-09-23T23:24:24.143Z,2.15
2022-09-23T23:26:55.025Z,1.85
2022-09-23T23:29:25.747Z,1.75
2022-09-23T23:31:56.340Z,1.83
2022-09-23T23:34:27.166Z,2.03
2022-09-23T23:36:57.959Z,1.70
2022-09-23T23:39:28.890Z,1.58
2022-09-23T23:41:59.924Z,1.73
2022-09-23T23:44:31.961Z,0.95
2022-09-23T23:47:03.118Z,1.67
2022-09-23T23:49:34.313Z,2.00
2022-09-23T23:52:04.915Z,1.92
2022-09-23T23:54:35.609Z,1.73
2022-09-23T23:57:06.260Z,1.80
2022-09-23T23:59:36.857Z,2.10
